Time;durP1;ratioP1;P1;durP2;ratioP2;P2;SDS_P1;SDS_P2;PMS_P1;PMS_P2;Temp;Humidity;BMP_temperature;BMP_pressure;BME280_temperature;BME280_humidity;BME280_pressure;Samples;Min_cycle;Max_cycle;Signal;HPM_P1;HPM_P2
2022/03/12 00:01:26;;;;;;;5.37;2.90;;;22.30;52.40;;;;;;5007996;28;20427;-91
2022/03/12 00:03:53;;;;;;;3.40;2.20;;;22.30;52.40;;;;;;5008202;28;20420;-91
2022/03/12 00:06:19;;;;;;;3.47;2.53;;;22.30;52.40;;;;;;5007583;28;20423;-91
2022/03/12 00:08:47;;;;;;;3.27;2.40;;;22.30;52.40;;;;;;5009015;28;20499;-92
2022/03/12 00:11:27;;;;;;;3.23;2.10;;;22.30;52.40;;;;;;5009319;28;20414;-91
2022/03/12 00:14:00;;;;;;;2.90;2.50;;;22.30;52.40;;;;;;5008170;28;20467;-92
2022/03/12 00:16:26;;;;;;;3.90;2.37;;;22.30;52.40;;;;;;5008946;28;20431;-92
2022/03/12 00:19:05;;;;;;;3.40;2.63;;;22.20;52.30;;;;;;5007633;28;20416;-92
2022/03/12 00:21:35;;;;;;;4.37;2.70;;;22.20;52.20;;;;;;5008056;28;20412;-91
2022/03/12 00:24:02;;;;;;;3.40;2.50;;;22.20;52.20;;;;;;5007954;28;20455;-91
2022/03/12 00:26:31;;;;;;;4.57;2.87;;;22.20;52.30;;;;;;5008576;28;20420;-91
2022/03/12 00:28:58;;;;;;;3.00;2.00;;;22.20;52.30;;;;;;5008400;28;20417;-92
2022/03/12 00:31:25;;;;;;;3.00;2.20;;;22.20;52.20;;;;;;5009146;28;20495;-91
2022/03/12 00:33:51;;;;;;;3.63;2.37;;;22.20;52.20;;;;;;5006620;28;20513;-91
2022/03/12 00:36:23;;;;;;;4.97;2.70;;;22.20;52.20;;;;;;5009156;28;20551;-91
2022/03/12 00:38:54;;;;;;;3.47;2.27;;;22.20;52.30;;;;;;5008125;28;20434;-91
2022/03/12 00:41:30;;;;;;;;;;;;;;;;;;;;;
2022/03/12 00:43:56;;;;;;;3.23;2.20;;;22.20;52.30;;;;;;5009075;28;20456;-91
2022/03/12 00:46:22;;;;;;;2.83;2.40;;;22.20;52.30;;;;;;5007600;28;20424;-92
2022/03/12 00:48:48;;;;;;;3.20;2.17;;;22.10;52.20;;;;;;5007413;28;20188;-92
2022/03/12 00:51:14;;;;;;;3.80;2.67;;;22.10;52.30;;;;;;5009145;28;20424;-91
2022/03/12 00:53:41;;;;;;;4.33;2.60;;;22.10;52.30;;;;;;5008220;28;20462;-92
2022/03/12 00:56:26;;;;;;;3.83;2.10;;;22.10;52.20;;;;;;5007902;28;20169;-92
2022/03/12 00:58:51;;;;;;;3.17;2.40;;;22.10;52.20;;;;;;5008087;28;20389;-92
2022/03/12 01:01:17;;;;;;;3.20;2.50;;;22.10;52.30;;;;;;5007543;28;20411;-92
2022/03/12 01:03:43;;;;;;;3.60;2.43;;;22.10;52.20;;;;;;5008114;28;20681;-92
2022/03/12 01:09:56;;;;;;;3.70;2.47;;;22.10;52.30;;;;;;5008493;28;20184;-91
2022/03/12 01:12:22;;;;;;;2.77;2.03;;;22.10;52.30;;;;;;5007260;28;20427;-91
2022/03/12 01:14:51;;;;;;;3.10;2.53;;;22.10;52.40;;;;;;5007106;28;20491;-91
2022/03/12 01:17:16;;;;;;;2.67;2.03;;;22.10;52.40;;;;;;5006507;28;20432;-91
2022/03/12 01:19:42;;;;;;;4.50;1.87;;;22.10;52.40;;;;;;5007510;28;20789;-91
2022/03/12 01:22:10;;;;;;;4.40;2.33;;;22.10;52.40;;;;;;5006677;28;20177;-91
2022/03/12 01:24:37;;;;;;;2.83;2.10;;;22.10;52.40;;;;;;5008319;28;20166;-91
2022/03/12 01:27:03;;;;;;;3.50;2.33;;;22.10;52.40;;;;;;5007450;28;20516;-90
2022/03/12 01:29:28;;;;;;;2.97;2.30;;;22.10;52.40;;;;;;5007622;28;20431;-91
2022/03/12 01:31:56;;;;;;;3.00;2.10;;;22.10;52.40;;;;;;5006674;28;20480;-92
2022/03/12 01:34:22;;;;;;;4.17;2.47;;;22.10;52.30;;;;;;5006757;28;20662;-90
2022/03/12 01:36:48;;;;;;;3.40;2.50;;;22.10;52.30;;;;;;5006017;28;20424;-90
2022/03/12 01:39:14;;;;;;;3.20;2.13;;;22.10;52.40;;;;;;5006589;28;20237;-90
2022/03/12 01:41:42;;;;;;;3.40;2.33;;;22.10;52.30;;;;;;5006743;28;20288;-90
2022/03/12 01:44:08;;;;;;;3.03;2.10;;;22.10;52.40;;;;;;5007417;28;20177;-91
2022/03/12 01:46:40;;;;;;;3.10;2.33;;;22.10;52.40;;;;;;5006756;28;20427;-91
2022/03/12 01:49:26;;;;;;;3.03;2.33;;;22.10;52.40;;;;;;5006282;28;20511;-90
2022/03/12 01:51:56;;;;;;;2.40;2.00;;;22.10;52.40;;;;;;5005356;28;20416;-91
2022/03/12 01:54:25;;;;;;;3.23;2.20;;;22.00;52.30;;;;;;5006258;28;20524;-91
2022/03/12 01:56:53;;;;;;;3.63;1.90;;;22.00;52.30;;;;;;5005803;28;20416;-91
2022/03/12 01:59:20;;;;;;;3.43;2.03;;;22.00;52.30;;;;;;5005098;28;20419;-90
2022/03/12 02:01:52;;;;;;;3.30;2.50;;;22.00;52.30;;;;;;5005020;28;20416;-91
2022/03/12 02:04:25;;;;;;;3.07;2.30;;;22.00;52.30;;;;;;5005566;28;20419;-91
2022/03/12 02:06:52;;;;;;;5.30;2.47;;;22.00;51.80;;;;;;5006245;28;20520;-91
2022/03/12 02:09:20;;;;;;;2.77;2.07;;;22.00;52.20;;;;;;5005432;28;20483;-90
2022/03/12 02:11:51;;;;;;;2.70;2.40;;;22.00;52.30;;;;;;5005951;28;20423;-92
2022/03/12 02:14:23;;;;;;;3.37;2.33;;;22.00;52.20;;;;;;5004738;28;20456;-92
2022/03/12 02:16:53;;;;;;;3.23;2.13;;;22.00;52.20;;;;;;5005161;28;20566;-91
2022/03/12 02:19:25;;;;;;;3.37;2.40;;;22.00;52.20;;;;;;5005297;28;20405;-91
2022/03/12 02:21:53;;;;;;;3.07;1.93;;;22.00;52.20;;;;;;5005150;28;20485;-91
2022/03/12 02:24:29;;;;;;;3.23;2.07;;;22.00;52.20;;;;;;5006428;28;20416;-91
2022/03/12 02:26:57;;;;;;;2.70;2.17;;;22.00;52.20;;;;;;5005762;28;20400;-91
2022/03/12 02:29:24;;;;;;;3.03;1.90;;;22.10;52.30;;;;;;5005600;28;20429;-91
2022/03/12 02:32:00;;;;;;;3.77;2.00;;;22.00;52.20;;;;;;5004883;28;20435;-91
2022/03/12 02:34:30;;;;;;;2.63;2.13;;;22.10;52.20;;;;;;5005113;28;20458;-91
2022/03/12 02:36:57;;;;;;;3.73;2.33;;;22.10;52.20;;;;;;5004934;28;20417;-91
2022/03/12 02:39:27;;;;;;;2.83;1.93;;;22.10;52.20;;;;;;5005193;28;20412;-91
2022/03/12 02:41:57;;;;;;;3.10;2.37;;;22.10;52.20;;;;;;5004557;28;20409;-91
2022/03/12 02:44:28;;;;;;;3.00;1.93;;;22.10;52.20;;;;;;5004456;28;20922;-91
2022/03/12 02:47:15;;;;;;;4.60;2.30;;;22.10;52.20;;;;;;5005355;28;20393;-91
2022/03/12 02:49:43;;;;;;;2.47;1.73;;;22.10;52.20;;;;;;5005435;28;20431;-91
2022/03/12 02:52:23;;;;;;;;;;;;;;;;;;;;;
2022/03/12 02:54:53;;;;;;;2.43;1.80;;;22.10;52.20;;;;;;5005816;28;20534;-92
2022/03/12 02:57:30;;;;;;;2.63;2.10;;;22.10;52.20;;;;;;5004637;28;20978;-91
2022/03/12 03:00:04;;;;;;;2.70;2.13;;;22.10;52.20;;;;;;5005514;28;20794;-92
2022/03/12 03:02:41;;;;;;;3.00;2.13;;;22.00;52.10;;;;;;5005374;28;20411;-92
2022/03/12 03:05:07;;;;;;;2.87;1.70;;;22.00;52.10;;;;;;5004896;28;20416;-92
2022/03/12 03:07:35;;;;;;;2.83;2.13;;;22.00;52.10;;;;;;5005444;28;20483;-92
2022/03/12 03:10:02;;;;;;;3.10;2.17;;;22.00;52.00;;;;;;5004089;28;20870;-92
2022/03/12 03:12:28;;;;;;;2.77;1.87;;;22.10;52.10;;;;;;5005412;28;20419;-92
2022/03/12 03:15:02;;;;;;;2.50;1.77;;;22.10;52.10;;;;;;5005499;28;20460;-92
2022/03/12 03:17:28;;;;;;;2.80;2.30;;;22.00;52.00;;;;;;5004027;28;20625;-92
2022/03/12 03:19:57;;;;;;;3.47;2.10;;;22.10;52.10;;;;;;5005754;28;20420;-92
2022/03/12 03:22:23;;;;;;;2.60;1.90;;;22.10;52.10;;;;;;5004919;28;20828;-92
2022/03/12 03:24:51;;;;;;;3.30;1.77;;;22.00;52.00;;;;;;5005172;28;20499;-92
2022/03/12 03:27:19;;;;;;;3.17;1.90;;;22.00;52.00;;;;;;5004221;28;20181;-92
2022/03/12 03:29:44;;;;;;;2.23;1.53;;;22.00;52.00;;;;;;5005998;28;20438;-91
2022/03/12 03:32:10;;;;;;;2.57;1.90;;;22.00;52.00;;;;;;5004462;28;20945;-92
2022/03/12 03:34:38;;;;;;;3.27;1.90;;;22.00;52.00;;;;;;5004778;28;20664;-92
2022/03/12 03:37:07;;;;;;;2.90;1.87;;;22.00;52.00;;;;;;5004321;28;20180;-92
2022/03/12 03:39:36;;;;;;;2.73;1.80;;;22.00;52.00;;;;;;5003945;28;20504;-92
2022/03/12 03:42:02;;;;;;;4.73;2.37;;;22.00;52.00;;;;;;5005126;28;20482;-92
2022/03/12 03:44:31;;;;;;;2.70;2.00;;;22.00;52.00;;;;;;5004240;28;20420;-92
2022/03/12 03:46:58;;;;;;;2.13;1.77;;;22.00;52.00;;;;;;5004563;28;20420;-92
2022/03/12 03:49:26;;;;;;;3.00;2.30;;;22.00;52.00;;;;;;5004123;28;20933;-92
2022/03/12 03:51:58;;;;;;;2.43;1.73;;;22.00;52.00;;;;;;5004264;28;20945;-92
2022/03/12 03:54:24;;;;;;;3.33;1.90;;;22.00;52.00;;;;;;5004333;28;20484;-92
2022/03/12 03:56:50;;;;;;;2.00;1.80;;;22.00;52.00;;;;;;5004246;28;20440;-92
2022/03/12 03:59:19;;;;;;;3.10;2.10;;;22.00;52.00;;;;;;5003583;28;20647;-92
2022/03/12 04:01:45;;;;;;;2.03;1.77;;;22.00;52.00;;;;;;5003810;28;20416;-92
2022/03/12 04:04:13;;;;;;;3.93;2.10;;;22.00;52.00;;;;;;5003523;28;20992;-92
2022/03/12 04:06:40;;;;;;;2.70;1.63;;;22.00;52.00;;;;;;5004492;28;20419;-92
2022/03/12 04:09:06;;;;;;;3.33;2.20;;;22.00;52.00;;;;;;5005248;28;20416;-92
2022/03/12 04:11:34;;;;;;;1.70;1.57;;;22.00;52.00;;;;;;5003645;28;20833;-91
2022/03/12 04:14:01;;;;;;;2.37;1.73;;;22.00;52.00;;;;;;5003557;28;20463;-92
2022/03/12 04:16:28;;;;;;;3.60;2.23;;;22.00;52.00;;;;;;5004864;28;20458;-92
2022/03/12 04:18:55;;;;;;;2.57;1.70;;;22.00;52.00;;;;;;5004161;28;20419;-92
2022/03/12 04:21:21;;;;;;;2.43;1.70;;;22.00;52.00;;;;;;5020534;28;20425;-92
2022/03/12 04:23:49;;;;;;;2.40;1.70;;;22.00;52.00;;;;;;5003005;28;20451;-92
2022/03/12 04:26:15;;;;;;;3.13;1.80;;;22.00;52.00;;;;;;5020192;28;20431;-92
2022/03/12 04:28:42;;;;;;;2.20;1.63;;;22.00;52.00;;;;;;5020830;28;20415;-92
2022/03/12 04:31:08;;;;;;;2.17;1.50;;;21.90;51.90;;;;;;5028326;28;20419;-92
2022/03/12 04:33:35;;;;;;;2.13;1.90;;;22.00;51.90;;;;;;5025151;28;20454;-92
2022/03/12 04:36:03;;;;;;;3.83;2.03;;;22.00;51.90;;;;;;5039938;28;20470;-91
2022/03/12 04:38:29;;;;;;;3.63;2.20;;;22.00;52.00;;;;;;5027082;28;20411;-92
2022/03/12 04:40:56;;;;;;;2.83;1.80;;;22.00;52.00;;;;;;5027029;28;20442;-91
2022/03/12 04:43:24;;;;;;;3.27;1.57;;;22.00;52.00;;;;;;5028096;28;20411;-91
2022/03/12 04:45:50;;;;;;;2.43;1.90;;;21.90;51.90;;;;;;5026745;28;20420;-90
2022/03/12 04:48:17;;;;;;;2.73;1.70;;;21.90;51.90;;;;;;5027428;28;20443;-91
2022/03/12 04:50:53;;;;;;;2.97;2.17;;;21.90;51.90;;;;;;5026992;28;20198;-90
2022/03/12 04:53:21;;;;;;;2.10;1.57;;;21.90;51.90;;;;;;5026823;28;20454;-91
2022/03/12 04:55:47;;;;;;;2.23;1.53;;;21.90;51.90;;;;;;5026088;28;20913;-90
2022/03/12 04:58:16;;;;;;;2.90;1.73;;;21.90;52.00;;;;;;5027581;28;20418;-91
2022/03/12 05:00:43;;;;;;;2.53;1.70;;;21.90;52.00;;;;;;5027736;28;20882;-91
2022/03/12 05:03:18;;;;;;;2.70;1.60;;;21.90;52.00;;;;;;5026942;28;20913;-91
2022/03/12 05:05:46;;;;;;;2.27;2.00;;;21.80;51.90;;;;;;5026622;28;20449;-92
2022/03/12 05:08:16;;;;;;;2.17;1.60;;;21.80;51.90;;;;;;5026849;28;20435;-92
2022/03/12 05:10:43;;;;;;;2.37;1.90;;;21.80;51.90;;;;;;5028445;28;20434;-91
2022/03/12 05:13:10;;;;;;;2.50;1.80;;;21.80;51.90;;;;;;5028397;28;20464;-92
2022/03/12 05:15:39;;;;;;;2.53;1.77;;;21.80;51.90;;;;;;5030906;28;20426;-92
2022/03/12 05:18:12;;;;;;;2.53;1.93;;;21.80;51.90;;;;;;5027219;28;20449;-92
2022/03/12 05:20:46;;;;;;;2.47;2.00;;;21.80;51.90;;;;;;5029619;28;20423;-91
2022/03/12 05:23:13;;;;;;;2.80;1.87;;;21.80;52.00;;;;;;5029590;28;20426;-91
2022/03/12 05:25:41;;;;;;;1.90;1.50;;;21.80;52.00;;;;;;5027173;28;20467;-92
2022/03/12 05:28:15;;;;;;;2.10;1.57;;;21.80;52.10;;;;;;5029640;28;20449;-92
2022/03/12 05:30:45;;;;;;;2.30;1.73;;;21.80;52.00;;;;;;5029744;28;20423;-92
2022/03/12 05:33:12;;;;;;;2.20;1.70;;;21.80;52.00;;;;;;5026373;28;20459;-91
2022/03/12 05:35:40;;;;;;;2.83;1.87;;;21.80;52.10;;;;;;5026033;28;20416;-92
2022/03/12 05:38:06;;;;;;;2.17;1.80;;;21.80;52.10;;;;;;5025918;28;20522;-92
2022/03/12 05:40:35;;;;;;;1.90;1.47;;;21.80;52.00;;;;;;5026901;28;20411;-92
2022/03/12 05:43:00;;;;;;;2.27;1.70;;;21.80;52.00;;;;;;5025445;28;20424;-91
2022/03/12 05:45:26;;;;;;;2.40;1.60;;;21.80;52.00;;;;;;5025722;28;20821;-92
2022/03/12 05:47:52;;;;;;;2.23;1.83;;;21.70;51.90;;;;;;5025369;28;20180;-92
2022/03/12 05:50:19;;;;;;;2.93;1.70;;;21.80;52.00;;;;;;5026910;28;20234;-92
2022/03/12 05:52:47;;;;;;;2.30;1.60;;;21.70;52.00;;;;;;5025472;28;20786;-92
2022/03/12 05:55:14;;;;;;;1.73;1.60;;;21.80;52.10;;;;;;5026495;28;20411;-91
2022/03/12 05:57:41;;;;;;;2.83;1.83;;;21.80;52.10;;;;;;5027508;28;20407;-91
2022/03/12 06:00:11;;;;;;;3.40;1.70;;;21.80;52.10;;;;;;5025838;28;20419;-91
2022/03/12 06:02:43;;;;;;;2.30;1.50;;;21.80;52.10;;;;;;5028844;28;20411;-92
2022/03/12 06:05:14;;;;;;;2.37;1.60;;;21.80;52.20;;;;;;5030493;28;20417;-91
2022/03/12 06:07:44;;;;;;;3.83;1.53;;;21.80;52.20;;;;;;5025213;28;20422;-91
2022/03/12 06:10:11;;;;;;;2.20;1.67;;;21.80;52.20;;;;;;5028445;28;20415;-92
2022/03/12 06:12:42;;;;;;;2.60;1.67;;;21.80;52.20;;;;;;5028893;28;20419;-91
2022/03/12 06:15:08;;;;;;;2.90;1.73;;;21.80;52.20;;;;;;5028122;28;20404;-91
2022/03/12 06:17:41;;;;;;;2.20;1.63;;;21.80;52.20;;;;;;5024447;28;20446;-92
2022/03/12 06:20:15;;;;;;;2.57;1.97;;;21.80;52.20;;;;;;5025325;28;20469;-90
2022/03/12 06:22:42;;;;;;;2.30;2.10;;;21.80;52.20;;;;;;5025240;28;20403;-90
2022/03/12 06:25:10;;;;;;;2.40;1.50;;;21.80;52.20;;;;;;5025460;28;20419;-90
2022/03/12 06:27:37;;;;;;;3.03;1.80;;;21.80;52.20;;;;;;5026139;28;20442;-90
2022/03/12 06:30:06;;;;;;;2.33;1.80;;;21.80;52.20;;;;;;5026433;28;20407;-90
2022/03/12 06:32:34;;;;;;;2.10;1.50;;;21.90;52.30;;;;;;5025537;28;20427;-90
2022/03/12 06:35:00;;;;;;;2.13;1.60;;;21.90;52.20;;;;;;5024893;28;20490;-90
2022/03/12 06:37:27;;;;;;;2.13;1.53;;;21.90;52.20;;;;;;5024755;28;20415;-90
2022/03/12 06:39:55;;;;;;;2.13;1.90;;;21.90;52.20;;;;;;5025411;28;20506;-91
2022/03/12 06:42:23;;;;;;;2.10;1.33;;;21.90;52.20;;;;;;5025266;28;20416;-90
2022/03/12 06:44:55;;;;;;;1.93;1.60;;;21.90;52.20;;;;;;5025320;28;20415;-90
2022/03/12 06:47:23;;;;;;;2.73;1.87;;;21.90;52.20;;;;;;5025732;28;20439;-91
2022/03/12 06:49:49;;;;;;;2.70;1.77;;;21.90;52.20;;;;;;5024562;28;20427;-90
2022/03/12 06:52:14;;;;;;;1.83;1.63;;;21.90;52.20;;;;;;5025340;28;20420;-90
2022/03/12 06:54:43;;;;;;;2.20;1.60;;;21.90;52.20;;;;;;5025722;28;20506;-90
2022/03/12 06:57:10;;;;;;;2.20;1.53;;;21.90;52.20;;;;;;5027491;28;20239;-91
2022/03/12 06:59:38;;;;;;;3.50;1.90;;;21.90;52.20;;;;;;5025065;28;20425;-89
2022/03/12 07:02:04;;;;;;;3.07;1.90;;;21.90;52.20;;;;;;5027385;28;20411;-90
2022/03/12 07:04:31;;;;;;;3.00;1.70;;;21.90;52.20;;;;;;5027808;28;20438;-89
2022/03/12 07:06:56;;;;;;;2.70;2.00;;;22.00;52.20;;;;;;5025577;28;20416;-89
2022/03/12 07:09:22;;;;;;;2.10;1.67;;;22.00;52.20;;;;;;5027861;28;20434;-89
2022/03/12 07:11:48;;;;;;;2.00;1.73;;;22.00;52.30;;;;;;5028096;28;20180;-89
2022/03/12 07:14:13;;;;;;;2.47;1.77;;;22.00;52.20;;;;;;5041548;28;20218;-89
2022/03/12 07:16:39;;;;;;;2.23;1.80;;;22.00;52.20;;;;;;5024505;28;20658;-88
2022/03/12 07:19:05;;;;;;;2.80;1.70;;;22.00;52.20;;;;;;5024714;28;20212;-89
2022/03/12 07:21:31;;;;;;;1.70;1.50;;;22.00;52.20;;;;;;5024360;28;20180;-88
2022/03/12 07:23:56;;;;;;;2.40;1.33;;;22.00;52.20;;;;;;5040827;28;20212;-90
2022/03/12 07:26:22;;;;;;;3.23;2.00;;;22.00;52.20;;;;;;5024427;28;20177;-90
2022/03/12 07:28:49;;;;;;;4.20;1.97;;;22.00;52.30;;;;;;5024272;28;20626;-90
2022/03/12 07:31:16;;;;;;;1.97;1.70;;;22.00;52.20;;;;;;5024161;28;20180;-90
2022/03/12 07:33:42;;;;;;;2.50;1.63;;;22.00;52.20;;;;;;5024154;28;20463;-89
2022/03/12 07:36:09;;;;;;;2.40;1.80;;;22.00;52.20;;;;;;5025782;28;20395;-90
2022/03/12 07:38:37;;;;;;;2.53;1.50;;;22.00;52.20;;;;;;5024361;28;20450;-90
2022/03/12 07:41:05;;;;;;;1.90;1.60;;;22.00;52.20;;;;;;5026367;28;20415;-90
2022/03/12 07:43:34;;;;;;;2.50;1.70;;;22.00;52.20;;;;;;5026627;28;20461;-90
2022/03/12 07:46:00;;;;;;;2.50;1.70;;;22.00;52.20;;;;;;5024557;28;20411;-89
2022/03/12 07:48:28;;;;;;;3.87;2.00;;;22.00;52.20;;;;;;5023741;28;20429;-89
2022/03/12 07:50:54;;;;;;;2.23;1.70;;;22.00;52.20;;;;;;5023359;28;20172;-90
2022/03/12 07:53:20;;;;;;;3.70;2.60;;;22.00;52.20;;;;;;5027626;28;20451;-89
2022/03/12 07:55:47;;;;;;;2.07;1.60;;;22.00;52.20;;;;;;5027983;28;20434;-89
2022/03/12 07:58:14;;;;;;;2.10;1.60;;;22.00;52.20;;;;;;5023888;28;20443;-89
2022/03/12 08:00:42;;;;;;;2.07;1.70;;;22.00;52.20;;;;;;5026863;28;20423;-89
2022/03/12 08:03:08;;;;;;;3.47;1.70;;;22.00;52.20;;;;;;5043851;28;20423;-90
2022/03/12 08:05:35;;;;;;;2.60;1.90;;;22.00;52.20;;;;;;5025426;28;20418;-90
2022/03/12 08:08:02;;;;;;;2.40;1.63;;;22.00;52.20;;;;;;5028357;28;20440;-89
2022/03/12 08:11:24;;;;;;;2.20;1.90;;;22.00;52.30;;;;;;5027143;28;20423;-90
2022/03/12 08:13:21;;;;;;;2.47;2.10;;;22.00;52.30;;;;;;5027751;28;20578;-90
2022/03/12 08:15:49;;;;;;;2.03;1.73;;;22.00;52.20;;;;;;5026864;28;20423;-90
2022/03/12 08:18:15;;;;;;;4.70;2.17;;;22.00;52.30;;;;;;5026611;28;20420;-90
2022/03/12 08:20:41;;;;;;;7.17;2.00;;;22.00;52.30;;;;;;5027149;28;20433;-90
2022/03/12 08:23:08;;;;;;;3.37;1.73;;;22.00;52.20;;;;;;5029158;28;20418;-90
2022/03/12 08:25:36;;;;;;;2.37;1.70;;;22.10;52.30;;;;;;5027999;28;20411;-90
2022/03/12 08:28:02;;;;;;;1.70;1.50;;;22.10;52.30;;;;;;5027481;28;20446;-90
2022/03/12 08:30:30;;;;;;;2.33;1.60;;;22.10;52.30;;;;;;5027476;28;20415;-90
2022/03/12 08:32:56;;;;;;;2.03;1.37;;;22.10;52.30;;;;;;5027830;28;20422;-90
2022/03/12 08:35:22;;;;;;;2.43;1.50;;;22.10;52.40;;;;;;5028043;28;20411;-90
2022/03/12 08:37:48;;;;;;;4.60;1.80;;;22.10;52.30;;;;;;5043325;28;20184;-90
2022/03/12 08:40:14;;;;;;;3.40;2.20;;;22.10;52.30;;;;;;5027562;28;20179;-90
2022/03/12 08:42:41;;;;;;;2.80;1.60;;;22.10;52.30;;;;;;5027373;28;20180;-90
2022/03/12 08:45:08;;;;;;;3.07;1.67;;;22.10;52.30;;;;;;5027128;28;20439;-90
2022/03/12 08:47:34;;;;;;;2.53;1.70;;;22.10;52.30;;;;;;5027193;28;20418;-90
2022/03/12 08:50:00;;;;;;;3.10;1.93;;;22.10;52.30;;;;;;5028667;28;20412;-89
2022/03/12 08:52:26;;;;;;;2.20;1.50;;;22.10;52.30;;;;;;5031012;28;20416;-90
2022/03/12 08:54:51;;;;;;;2.53;1.80;;;22.10;52.30;;;;;;5029096;28;20521;-91
2022/03/12 08:57:17;;;;;;;2.43;2.03;;;22.10;52.30;;;;;;5029098;28;20173;-90
2022/03/12 08:59:43;;;;;;;2.47;1.80;;;22.10;52.30;;;;;;5031783;28;20286;-91
2022/03/12 09:02:12;;;;;;;2.03;1.80;;;22.10;52.30;;;;;;5028520;28;20416;-90
2022/03/12 09:04:38;;;;;;;2.37;1.90;;;22.10;52.40;;;;;;5028905;28;20187;-89
2022/03/12 09:07:05;;;;;;;1.93;1.70;;;22.10;52.30;;;;;;5031977;28;20427;-90
2022/03/12 09:09:31;;;;;;;2.37;1.50;;;22.10;52.30;;;;;;5028010;28;20187;-89
2022/03/12 09:11:56;;;;;;;1.80;1.60;;;22.10;52.40;;;;;;5027131;28;20419;-89
2022/03/12 09:14:22;;;;;;;2.23;1.70;;;22.10;52.40;;;;;;5026997;28;20223;-90
2022/03/12 09:16:48;;;;;;;3.53;2.10;;;22.10;52.40;;;;;;5042749;28;20223;-89
2022/03/12 09:19:14;;;;;;;2.87;1.80;;;22.10;52.40;;;;;;5027642;28;20434;-89
2022/03/12 09:21:41;;;;;;;1.60;1.50;;;22.10;52.40;;;;;;5027159;28;20177;-89
2022/03/12 09:24:07;;;;;;;2.20;1.87;;;22.10;52.40;;;;;;5025073;28;20254;-89
2022/03/12 09:26:33;;;;;;;1.90;1.70;;;22.10;52.40;;;;;;5026439;28;20797;-89
2022/03/12 09:28:59;;;;;;;2.73;1.70;;;22.10;52.40;;;;;;5025772;28;20196;-89
2022/03/12 09:31:25;;;;;;;1.80;1.37;;;22.10;52.40;;;;;;5026615;28;20177;-89
2022/03/12 09:33:50;;;;;;;3.30;1.73;;;22.10;52.40;;;;;;5024703;28;20271;-90
2022/03/12 09:36:22;;;;;;;3.30;3.00;;;22.10;52.40;;;;;;5025674;28;20184;-89
2022/03/12 09:38:48;;;;;;;2.07;1.47;;;22.10;52.40;;;;;;5025698;28;20172;-89
2022/03/12 09:41:14;;;;;;;2.30;1.93;;;22.10;52.40;;;;;;5026685;28;20550;-89
2022/03/12 09:43:41;;;;;;;1.93;1.73;;;22.10;52.40;;;;;;5026374;28;20176;-88
2022/03/12 09:46:09;;;;;;;1.80;1.33;;;22.10;52.40;;;;;;5026276;28;20204;-90
2022/03/12 09:48:35;;;;;;;1.80;1.30;;;22.10;52.40;;;;;;5027187;28;20424;-88
2022/03/12 09:51:02;;;;;;;2.13;1.50;;;22.10;52.40;;;;;;5031730;28;20422;-89
2022/03/12 09:53:28;;;;;;;3.73;1.63;;;22.10;52.40;;;;;;5028165;28;20482;-89
2022/03/12 09:55:53;;;;;;;1.93;1.50;;;22.10;52.40;;;;;;5027072;28;20495;-89
2022/03/12 09:58:19;;;;;;;2.63;1.60;;;22.10;52.40;;;;;;5046320;28;20207;-89
2022/03/12 10:00:45;;;;;;;1.73;1.53;;;22.10;52.40;;;;;;5026780;28;20187;-89
2022/03/12 10:03:11;;;;;;;2.40;1.87;;;22.10;52.40;;;;;;5029031;28;20362;-89
2022/03/12 10:05:42;;;;;;;1.70;1.53;;;22.10;52.40;;;;;;5029501;28;20179;-89
2022/03/12 10:08:08;;;;;;;2.83;1.40;;;22.10;52.40;;;;;;5028114;28;20396;-89
2022/03/12 10:10:34;;;;;;;2.57;1.83;;;22.10;52.40;;;;;;5025912;28;20418;-90
2022/03/12 10:13:00;;;;;;;1.87;1.60;;;22.10;52.40;;;;;;5041311;28;20181;-89
2022/03/12 10:15:26;;;;;;;2.77;1.67;;;22.10;52.40;;;;;;5025174;28;20495;-90
2022/03/12 10:17:52;;;;;;;1.83;1.60;;;22.10;52.40;;;;;;5021316;28;20428;-90
2022/03/12 10:20:18;;;;;;;2.23;1.67;;;22.10;52.40;;;;;;5006285;28;20176;-89
2022/03/12 10:22:48;;;;;;;1.50;1.40;;;22.10;52.40;;;;;;5005667;28;20428;-89
2022/03/12 10:25:14;;;;;;;1.97;1.40;;;22.10;52.40;;;;;;5005920;28;20252;-89
2022/03/12 10:27:42;;;;;;;2.60;1.40;;;22.10;52.40;;;;;;5004952;28;20418;-89
2022/03/12 10:30:08;;;;;;;3.00;1.60;;;22.10;52.40;;;;;;5005195;28;20416;-89
2022/03/12 10:32:44;;;;;;;2.30;1.50;;;22.10;52.40;;;;;;5005316;28;20423;-88
2022/03/12 10:35:14;;;;;;;2.90;1.60;;;22.10;52.40;;;;;;5021105;28;20863;-89
2022/03/12 10:37:41;;;;;;;1.90;1.60;;;22.10;52.30;;;;;;5005138;28;20420;-91
2022/03/12 10:40:25;;;;;;;2.53;1.57;;;22.10;52.40;;;;;;5005456;28;20408;-90
2022/03/12 10:42:55;;;;;;;2.50;1.83;;;22.10;52.40;;;;;;5006111;28;20404;-92
2022/03/12 10:45:25;;;;;;;3.10;1.90;;;22.00;52.30;;;;;;5004983;28;20941;-90
2022/03/12 10:47:56;;;;;;;2.30;1.60;;;22.10;52.40;;;;;;5021076;28;20621;-90
2022/03/12 10:50:25;;;;;;;2.37;1.97;;;22.00;52.30;;;;;;5005257;28;20417;-90
2022/03/12 10:52:54;;;;;;;1.70;1.50;;;22.00;52.30;;;;;;5005640;28;20400;-90
2022/03/12 10:55:34;;;;;;;2.20;1.50;;;22.00;52.30;;;;;;5005896;28;20412;-89
2022/03/12 10:58:21;;;;;;;2.23;1.30;;;22.00;52.30;;;;;;5006102;28;20397;-89
2022/03/12 11:00:49;;;;;;;2.50;2.23;;;22.00;52.30;;;;;;5004949;28;20424;-89
2022/03/12 11:03:23;;;;;;;2.77;2.03;;;22.00;52.40;;;;;;5004035;28;20973;-90
2022/03/12 11:05:50;;;;;;;2.20;1.60;;;22.00;52.40;;;;;;5005419;28;20415;-90
2022/03/12 11:08:21;;;;;;;3.17;1.70;;;22.00;52.40;;;;;;5003440;28;20428;-91
2022/03/12 11:11:11;;;;;;;2.23;1.87;;;22.00;52.40;;;;;;5004965;28;20419;-92
2022/03/12 11:13:48;;;;;;;2.33;1.73;;;22.10;52.50;;;;;;5005412;28;20471;-92
2022/03/12 11:16:14;;;;;;;2.57;1.63;;;22.10;52.50;;;;;;5004367;28;20781;-91
2022/03/12 11:18:52;;;;;;;2.00;1.40;;;22.10;52.50;;;;;;5005028;28;20432;-91
2022/03/12 11:21:33;;;;;;;2.33;1.60;;;22.10;52.50;;;;;;5005459;28;20412;-91
2022/03/12 11:23:59;;;;;;;1.60;1.50;;;22.10;52.50;;;;;;5003719;28;20752;-91
2022/03/12 11:26:26;;;;;;;1.77;1.53;;;22.10;52.50;;;;;;5003880;28;20491;-91
2022/03/12 11:28:59;;;;;;;2.10;1.50;;;22.10;52.50;;;;;;5005542;28;20487;-90
2022/03/12 11:31:41;;;;;;;2.50;2.03;;;22.10;52.40;;;;;;5004032;28;20424;-91
2022/03/12 11:34:19;;;;;;;2.53;1.70;;;22.10;52.40;;;;;;5005044;28;20452;-90
2022/03/12 11:36:59;;;;;;;2.00;1.70;;;22.20;52.50;;;;;;5003841;28;20420;-92
2022/03/12 11:39:31;;;;;;;1.97;1.77;;;22.20;52.50;;;;;;5003440;28;20451;-91
2022/03/12 11:42:17;;;;;;;2.03;1.83;;;22.10;52.40;;;;;;5003496;28;20478;-91
2022/03/12 11:44:55;;;;;;;2.67;1.70;;;22.20;52.40;;;;;;5003814;28;20416;-90
2022/03/12 11:47:23;;;;;;;2.87;1.87;;;22.20;52.50;;;;;;5009009;28;20404;-91
2022/03/12 11:49:50;;;;;;;2.87;1.60;;;22.20;52.40;;;;;;5007127;28;20965;-90
2022/03/12 11:52:16;;;;;;;1.93;1.50;;;22.20;52.40;;;;;;5024266;28;20420;-91
2022/03/12 11:54:45;;;;;;;3.77;2.07;;;22.20;52.40;;;;;;5008661;28;20488;-91
2022/03/12 11:57:19;;;;;;;1.73;1.47;;;22.20;52.40;;;;;;5007663;28;20420;-91
2022/03/12 11:59:45;;;;;;;2.00;1.60;;;22.20;52.40;;;;;;5007987;28;20392;-90
2022/03/12 12:02:33;;;;;;;2.17;1.73;;;22.20;52.40;;;;;;5008973;28;20407;-90
2022/03/12 12:05:07;;;;;;;2.30;1.77;;;22.20;52.40;;;;;;5007498;28;20882;-91
2022/03/12 12:07:36;;;;;;;2.53;1.70;;;22.20;52.40;;;;;;5008370;28;20411;-90
2022/03/12 12:10:04;;;;;;;2.00;1.63;;;22.20;52.40;;;;;;5007943;28;20428;-90
2022/03/12 12:12:34;;;;;;;2.67;1.43;;;22.20;52.40;;;;;;5006222;28;20408;-91
2022/03/12 12:15:04;;;;;;;2.33;1.60;;;22.20;52.40;;;;;;5003953;28;20444;-90
2022/03/12 12:17:31;;;;;;;2.37;1.60;;;22.20;52.40;;;;;;5001783;28;20436;-90
2022/03/12 12:19:57;;;;;;;2.27;1.77;;;22.20;52.40;;;;;;5005068;28;20896;-91
2022/03/12 12:22:26;;;;;;;1.97;1.77;;;22.20;52.40;;;;;;5006284;28;20439;-90
2022/03/12 12:24:53;;;;;;;2.73;1.70;;;22.20;52.40;;;;;;5006396;28;20420;-91
2022/03/12 12:27:23;;;;;;;3.13;1.77;;;22.20;52.40;;;;;;5006134;28;20945;-90
2022/03/12 12:29:54;;;;;;;2.47;2.00;;;22.20;52.40;;;;;;5008514;28;20415;-90
2022/03/12 12:32:24;;;;;;;3.50;1.80;;;22.20;52.40;;;;;;5005446;28;20511;-90
2022/03/12 12:35:15;;;;;;;2.43;1.90;;;22.20;52.40;;;;;;5006192;28;20439;-91
2022/03/12 12:38:02;;;;;;;2.20;1.37;;;22.20;52.40;;;;;;5007035;28;20926;-91
2022/03/12 12:40:41;;;;;;;2.10;1.50;;;22.20;52.40;;;;;;5006416;28;20456;-91
2022/03/12 12:43:09;;;;;;;2.07;1.70;;;22.20;52.40;;;;;;5006524;28;20450;-90
2022/03/12 12:45:58;;;;;;;2.33;1.37;;;22.20;52.40;;;;;;5006784;28;20420;-90
2022/03/12 12:48:31;;;;;;;1.60;1.50;;;22.20;52.40;;;;;;5006620;28;20423;-90
2022/03/12 12:50:59;;;;;;;1.97;1.60;;;22.20;52.40;;;;;;5006505;28;20582;-91
2022/03/12 12:53:41;;;;;;;2.07;1.47;;;22.20;52.50;;;;;;5005551;28;20825;-91
2022/03/12 12:56:18;;;;;;;2.33;1.63;;;22.20;52.40;;;;;;5006652;28;20570;-91
2022/03/12 12:59:02;;;;;;;2.33;1.57;;;22.20;52.50;;;;;;5001641;28;20413;-91
2022/03/12 13:01:36;;;;;;;1.77;1.47;;;22.20;52.50;;;;;;4998520;28;20415;-90